Etna, NY

3:02 AM EDT on July 26, 2016 (GMT -0400)
Wood rd | | Change Station

Elev 1066 ft 42.49 °N, 76.39 °W | Updated 32 seconds ago

Clear
Clear
64.4 °F
Feels Like 64.4 °F
N
0.0
Wind Variable Wind from South

Today
High -- | Low -- °F
--% Chance of Precip.
Yesterday
High -- | Low -- °F
Precip. -- in
Pressure 29.91 in
Visibility 1.0 miles
Clouds Clear
Dew Point 62 °F
Humidity 93%
Rainfall 0.00 in
Snow Depth Not available.
5:52 AM 8:31 PM
Waning Gibbous, 58% visible
METAR KITH 260656Z AUTO 00000KT 1SM R32/P6000FT BR CLR 17/17 A2993 RMK AO2 SLP129 T01720172 TSNO
Pressure 29.91 in
Visibility 1.0 miles
Clouds Clear
Dew Point 62 °F
Humidity 93%
Rainfall 0.00 in
Snow Depth Not available.
5:52 AM 8:31 PM
Waning Gibbous, 58% visible
METAR KITH 260656Z AUTO 00000KT 1SM R32/P6000FT BR CLR 17/17 A2993 RMK AO2 SLP129 T01720172 TSNO

10-Day Weather Forecast

Almanac

Astronomy

Jul. 26, 2016 Rise Set
Actual Time
Civil Twilight
Nautical Twilight
Astronomical Twilight
Moon
Length of Visible Light
Length of Day
Tomorrow will be .
, % of the Moon is Illuminated

Today's Extremes

State Highs State Lows

Community

WunderPhotos

Upload Photos

1,927,552 photos uploaded!

WunderBlog® & News

Nearby

Air Quality

  Air Quality AQ Index Pollutant
Not available.

Snow Depth

Station Depth Elevation

Earthquake Activity

City Distance Mag. Time & Date
Minimum magnitude displayed is 2.5.

Coastal Water Temperatures

Place Temperature

Stations

Nearby Weather Stations

Station Location Temp. Windchill Dew Point Humidity Wind Precip. Elev Updated Type
                   

Watches & Warnings

There are currently no watches in effect.